sensor_id;sensor_type;location;lat;lon;timestamp;temperature;humidity
10231;DHT22;62604;49.432;8.680;2022-11-03T06:16:39;10.10;99.90
10231;DHT22;62604;49.432;8.680;2022-11-03T06:19:20;10.00;99.90
10231;DHT22;62604;49.432;8.680;2022-11-03T06:21:49;10.00;99.90
10231;DHT22;62604;49.432;8.680;2022-11-03T06:24:20;10.00;99.90
10231;DHT22;62604;49.432;8.680;2022-11-03T06:26:50;9.90;99.90
10231;DHT22;62604;49.432;8.680;2022-11-03T06:29:20;10.00;99.90
10231;DHT22;62604;49.432;8.680;2022-11-03T06:31:51;10.00;99.90
10231;DHT22;62604;49.432;8.680;2022-11-03T06:34:33;10.10;99.90
10231;DHT22;62604;49.432;8.680;2022-11-03T06:37:17;10.10;99.90
10231;DHT22;62604;49.432;8.680;2022-11-03T06:39:46;10.20;99.90
10231;DHT22;62604;49.432;8.680;2022-11-03T06:42:15;10.30;99.90
10231;DHT22;62604;49.432;8.680;2022-11-03T06:44:46;10.30;99.90
10231;DHT22;62604;49.432;8.680;2022-11-03T06:47:20;10.30;99.90
10231;DHT22;62604;49.432;8.680;2022-11-03T06:49:49;10.40;99.90
10231;DHT22;62604;49.432;8.680;2022-11-03T06:52:23;10.40;99.90
10231;DHT22;62604;49.432;8.680;2022-11-03T06:54:54;10.40;99.90
10231;DHT22;62604;49.432;8.680;2022-11-03T06:57:25;10.50;99.90
10231;DHT22;62604;49.432;8.680;2022-11-03T06:59:54;10.70;99.90
10231;DHT22;62604;49.432;8.680;2022-11-03T07:05:25;10.70;99.90
10231;DHT22;62604;49.432;8.680;2022-11-03T07:07:56;10.80;99.90
10231;DHT22;62604;49.432;8.680;2022-11-03T07:10:26;10.90;99.90
10231;DHT22;62604;49.432;8.680;2022-11-03T07:12:54;10.90;99.90
10231;DHT22;62604;49.432;8.680;2022-11-03T07:15:27;11.00;99.90
10231;DHT22;62604;49.432;8.680;2022-11-03T07:18:01;11.10;99.90
10231;DHT22;62604;49.432;8.680;2022-11-03T07:20:31;11.10;99.90
10231;DHT22;62604;49.432;8.680;2022-11-03T07:22:59;11.10;99.90
10231;DHT22;62604;49.432;8.680;2022-11-03T07:25:27;11.20;99.90
10231;DHT22;62604;49.432;8.680;2022-11-03T07:27:55;11.20;99.90
10231;DHT22;62604;49.432;8.680;2022-11-03T07:30:28;11.20;99.90
10231;DHT22;62604;49.432;8.680;2022-11-03T07:33:01;11.20;99.90
10231;DHT22;62604;49.432;8.680;2022-11-03T07:35:36;11.30;99.90
10231;DHT22;62604;49.432;8.680;2022-11-03T07:38:10;11.30;99.90
10231;DHT22;62604;49.432;8.680;2022-11-03T07:40:39;11.40;99.90
10231;DHT22;62604;49.432;8.680;2022-11-03T07:43:14;11.40;99.90
10231;DHT22;62604;49.432;8.680;2022-11-03T07:45:47;11.40;99.90
10231;DHT22;62604;49.432;8.680;2022-11-03T07:48:21;11.30;99.90
10231;DHT22;62604;49.432;8.680;2022-11-03T07:50:50;11.30;99.90
10231;DHT22;62604;49.432;8.680;2022-11-03T07:53:21;11.30;99.90
10231;DHT22;62604;49.432;8.680;2022-11-03T07:55:52;11.40;99.90
10231;DHT22;62604;49.432;8.680;2022-11-03T07:58:28;11.40;99.90
10231;DHT22;62604;49.432;8.680;2022-11-03T08:00:59;11.50;99.90
10231;DHT22;62604;49.432;8.680;2022-11-03T08:03:40;11.50;99.90
10231;DHT22;62604;49.432;8.680;2022-11-03T08:06:09;11.50;99.90
10231;DHT22;62604;49.432;8.680;2022-11-03T08:08:38;11.50;99.90
10231;DHT22;62604;49.432;8.680;2022-11-03T08:11:06;11.70;99.90
10231;DHT22;62604;49.432;8.680;2022-11-03T08:13:34;11.80;99.90
10231;DHT22;62604;49.432;8.680;2022-11-03T08:16:03;11.80;99.90
10231;DHT22;62604;49.432;8.680;2022-11-03T08:18:32;11.90;99.90
10231;DHT22;62604;49.432;8.680;2022-11-03T08:20:59;12.00;99.90
10231;DHT22;62604;49.432;8.680;2022-11-03T08:23:26;12.10;99.60
10231;DHT22;62604;49.432;8.680;2022-11-03T08:25:55;12.10;99.20
10231;DHT22;62604;49.432;8.680;2022-11-03T08:28:23;12.20;99.00
10231;DHT22;62604;49.432;8.680;2022-11-03T08:30:50;12.10;99.30
10231;DHT22;62604;49.432;8.680;2022-11-03T08:33:17;12.10;99.00
10231;DHT22;62604;49.432;8.680;2022-11-03T08:35:47;12.10;99.30
10231;DHT22;62604;49.432;8.680;2022-11-03T08:38:17;12.10;99.10
10231;DHT22;62604;49.432;8.680;2022-11-03T08:40:45;12.10;99.40
10231;DHT22;62604;49.432;8.680;2022-11-03T08:43:13;12.10;99.10
10231;DHT22;62604;49.432;8.680;2022-11-03T08:45:41;12.20;99.00
10231;DHT22;62604;49.432;8.680;2022-11-03T08:48:07;12.20;98.70
10231;DHT22;62604;49.432;8.680;2022-11-03T08:50:36;12.20;98.40
10231;DHT22;62604;49.432;8.680;2022-11-03T08:53:05;12.30;98.20
10231;DHT22;62604;49.432;8.680;2022-11-03T08:55:33;12.30;98.10
10231;DHT22;62604;49.432;8.680;2022-11-03T08:58:00;12.40;97.80
10231;DHT22;62604;49.432;8.680;2022-11-03T09:00:28;12.50;98.40
10231;DHT22;62604;49.432;8.680;2022-11-03T09:02:55;12.70;97.40
10231;DHT22;62604;49.432;8.680;2022-11-03T09:05:22;12.80;96.30
10231;DHT22;62604;49.432;8.680;2022-11-03T09:07:49;12.80;95.40
10231;DHT22;62604;49.432;8.680;2022-11-03T09:10:20;13.10;95.40
10231;DHT22;62604;49.432;8.680;2022-11-03T09:12:50;13.30;94.50
10231;DHT22;62604;49.432;8.680;2022-11-03T09:15:18;13.50;93.80
10231;DHT22;62604;49.432;8.680;2022-11-03T09:17:47;13.70;93.10
10231;DHT22;62604;49.432;8.680;2022-11-03T09:20:14;13.70;92.20
10231;DHT22;62604;49.432;8.680;2022-11-03T09:22:43;14.10;91.50
10231;DHT22;62604;49.432;8.680;2022-11-03T09:25:10;14.50;91.20
10231;DHT22;62604;49.432;8.680;2022-11-03T09:27:40;14.60;89.50
10231;DHT22;62604;49.432;8.680;2022-11-03T09:30:08;14.90;89.50
10231;DHT22;62604;49.432;8.680;2022-11-03T09:32:36;14.90;85.70
10231;DHT22;62604;49.432;8.680;2022-11-03T09:35:05;15.00;85.10
10231;DHT22;62604;49.432;8.680;2022-11-03T09:37:34;14.70;85.40
10231;DHT22;62604;49.432;8.680;2022-11-03T09:40:03;14.40;86.90
10231;DHT22;62604;49.432;8.680;2022-11-03T09:42:31;14.40;87.90
10231;DHT22;62604;49.432;8.680;2022-11-03T09:56:01;14.00;89.50
10231;DHT22;62604;49.432;8.680;2022-11-03T09:58:28;14.00;90.30
10231;DHT22;62604;49.432;8.680;2022-11-03T10:00:55;14.00;90.40
10231;DHT22;62604;49.432;8.680;2022-11-03T10:03:22;14.00;90.10
10231;DHT22;62604;49.432;8.680;2022-11-03T10:05:50;14.00;90.70
10231;DHT22;62604;49.432;8.680;2022-11-03T10:08:20;14.10;90.60
10231;DHT22;62604;49.432;8.680;2022-11-03T10:10:48;14.10;90.40
10231;DHT22;62604;49.432;8.680;2022-11-03T10:13:23;14.20;90.20
10231;DHT22;62604;49.432;8.680;2022-11-03T10:15:52;14.30;89.40
10231;DHT22;62604;49.432;8.680;2022-11-03T10:18:20;14.30;88.80
10231;DHT22;62604;49.432;8.680;2022-11-03T10:20:47;14.50;88.50
10231;DHT22;62604;49.432;8.680;2022-11-03T10:23:16;14.50;86.40
10231;DHT22;62604;49.432;8.680;2022-11-03T10:25:45;14.50;86.10
10231;DHT22;62604;49.432;8.680;2022-11-03T10:28:19;14.50;86.60
10231;DHT22;62604;49.432;8.680;2022-11-03T10:30:52;14.60;85.50
10231;DHT22;62604;49.432;8.680;2022-11-03T10:33:27;14.50;85.80
10231;DHT22;62604;49.432;8.680;2022-11-03T10:35:56;14.50;86.00
10231;DHT22;62604;49.432;8.680;2022-11-03T10:38:26;14.70;85.80
10231;DHT22;62604;49.432;8.680;2022-11-03T10:40:55;14.80;84.50
10231;DHT22;62604;49.432;8.680;2022-11-03T10:43:24;15.00;84.00
10231;DHT22;62604;49.432;8.680;2022-11-03T10:46:09;14.90;84.20
10231;DHT22;62604;49.432;8.680;2022-11-03T10:48:37;14.90;83.90
10231;DHT22;62604;49.432;8.680;2022-11-03T10:51:06;14.80;84.90
10231;DHT22;62604;49.432;8.680;2022-11-03T10:53:39;14.90;85.20
10231;DHT22;62604;49.432;8.680;2022-11-03T10:56:09;14.80;84.60
10231;DHT22;62604;49.432;8.680;2022-11-03T10:58:38;14.60;85.00
10231;DHT22;62604;49.432;8.680;2022-11-03T11:01:09;14.50;85.40
10231;DHT22;62604;49.432;8.680;2022-11-03T11:03:41;14.60;86.50
10231;DHT22;62604;49.432;8.680;2022-11-03T11:06:20;14.60;85.80
10231;DHT22;62604;49.432;8.680;2022-11-03T11:08:50;14.80;85.80
10231;DHT22;62604;49.432;8.680;2022-11-03T11:11:19;14.80;85.10
10231;DHT22;62604;49.432;8.680;2022-11-03T11:14:19;14.70;85.40
10231;DHT22;62604;49.432;8.680;2022-11-03T11:16:49;14.50;87.40
10231;DHT22;62604;49.432;8.680;2022-11-03T11:19:17;14.60;87.10
10231;DHT22;62604;49.432;8.680;2022-11-03T11:22:00;14.40;86.60
10231;DHT22;62604;49.432;8.680;2022-11-03T11:24:57;14.30;88.20
10231;DHT22;62604;49.432;8.680;2022-11-03T11:31:10;14.20;90.00
10231;DHT22;62604;49.432;8.680;2022-11-03T11:37:30;14.30;90.00
10231;DHT22;62604;49.432;8.680;2022-11-03T11:39:58;14.10;89.80
10231;DHT22;62604;49.432;8.680;2022-11-03T11:42:25;14.00;90.50
10231;DHT22;62604;49.432;8.680;2022-11-03T11:44:57;14.10;90.50
10231;DHT22;62604;49.432;8.680;2022-11-03T11:47:44;14.10;90.60
10231;DHT22;62604;49.432;8.680;2022-11-03T11:50:30;14.10;91.00
10231;DHT22;62604;49.432;8.680;2022-11-03T11:53:36;14.10;91.00
10231;DHT22;62604;49.432;8.680;2022-11-03T11:56:07;14.00;90.80
10231;DHT22;62604;49.432;8.680;2022-11-03T11:58:39;13.90;90.60
10231;DHT22;62604;49.432;8.680;2022-11-03T12:01:20;14.00;91.30
10231;DHT22;62604;49.432;8.680;2022-11-03T12:03:51;14.00;91.40
10231;DHT22;62604;49.432;8.680;2022-11-03T12:06:31;14.00;91.10
10231;DHT22;62604;49.432;8.680;2022-11-03T12:09:15;13.90;92.00
10231;DHT22;62604;49.432;8.680;2022-11-03T12:11:44;13.80;93.00
10231;DHT22;62604;49.432;8.680;2022-11-03T12:14:23;13.70;92.50
10231;DHT22;62604;49.432;8.680;2022-11-03T12:16:51;13.70;93.30
10231;DHT22;62604;49.432;8.680;2022-11-03T12:19:38;13.60;94.40
10231;DHT22;62604;49.432;8.680;2022-11-03T12:22:08;13.50;94.00
10231;DHT22;62604;49.432;8.680;2022-11-03T12:27:38;13.50;94.60
10231;DHT22;62604;49.432;8.680;2022-11-03T12:30:16;13.40;94.50
10231;DHT22;62604;49.432;8.680;2022-11-03T12:32:45;13.40;94.90
10231;DHT22;62604;49.432;8.680;2022-11-03T12:35:16;13.40;95.00
10231;DHT22;62604;49.432;8.680;2022-11-03T12:37:44;13.30;95.40
10231;DHT22;62604;49.432;8.680;2022-11-03T12:40:12;13.30;95.80
10231;DHT22;62604;49.432;8.680;2022-11-03T12:42:39;13.40;96.00
10231;DHT22;62604;49.432;8.680;2022-11-03T12:45:07;13.40;95.50
10231;DHT22;62604;49.432;8.680;2022-11-03T12:47:35;13.40;95.60
10231;DHT22;62604;49.432;8.680;2022-11-03T12:50:03;13.40;95.40
10231;DHT22;62604;49.432;8.680;2022-11-03T12:52:33;13.50;96.10
10231;DHT22;62604;49.432;8.680;2022-11-03T12:55:00;13.60;95.40
10231;DHT22;62604;49.432;8.680;2022-11-03T12:57:27;13.50;94.40
10231;DHT22;62604;49.432;8.680;2022-11-03T12:59:56;13.60;94.40
10231;DHT22;62604;49.432;8.680;2022-11-03T13:02:23;13.60;93.40
10231;DHT22;62604;49.432;8.680;2022-11-03T13:04:50;13.70;93.40
10231;DHT22;62604;49.432;8.680;2022-11-03T13:07:17;13.70;92.80
10231;DHT22;62604;49.432;8.680;2022-11-03T13:09:47;13.70;92.40
10231;DHT22;62604;49.432;8.680;2022-11-03T13:12:14;13.70;92.80
10231;DHT22;62604;49.432;8.680;2022-11-03T13:15:01;13.70;92.20
10231;DHT22;62604;49.432;8.680;2022-11-03T13:17:28;13.80;92.20
10231;DHT22;62604;49.432;8.680;2022-11-03T13:19:56;13.70;91.40
10231;DHT22;62604;49.432;8.680;2022-11-03T13:22:24;13.90;91.20
10231;DHT22;62604;49.432;8.680;2022-11-03T13:24:52;14.00;90.60
10231;DHT22;62604;49.432;8.680;2022-11-03T13:27:20;14.10;90.70
10231;DHT22;62604;49.432;8.680;2022-11-03T13:29:48;14.00;91.30
10231;DHT22;62604;49.432;8.680;2022-11-03T13:32:15;13.90;92.30
10231;DHT22;62604;49.432;8.680;2022-11-03T13:34:42;13.90;92.50
10231;DHT22;62604;49.432;8.680;2022-11-03T13:37:09;13.90;92.30
10231;DHT22;62604;49.432;8.680;2022-11-03T13:39:37;13.80;92.40
10231;DHT22;62604;49.432;8.680;2022-11-03T13:42:06;13.70;93.20
10231;DHT22;62604;49.432;8.680;2022-11-03T13:44:33;13.60;94.00
10231;DHT22;62604;49.432;8.680;2022-11-03T13:47:00;13.50;94.10
10231;DHT22;62604;49.432;8.680;2022-11-03T13:49:29;13.50;94.40
10231;DHT22;62604;49.432;8.680;2022-11-03T13:51:56;13.50;95.50
10231;DHT22;62604;49.432;8.680;2022-11-03T13:54:24;13.50;95.00
10231;DHT22;62604;49.432;8.680;2022-11-03T13:56:51;13.50;94.70
10231;DHT22;62604;49.432;8.680;2022-11-03T13:59:19;13.50;94.30
10231;DHT22;62604;49.432;8.680;2022-11-03T14:01:46;13.50;94.50
10231;DHT22;62604;49.432;8.680;2022-11-03T14:04:14;13.50;94.30
10231;DHT22;62604;49.432;8.680;2022-11-03T14:06:42;13.50;93.30
10231;DHT22;62604;49.432;8.680;2022-11-03T14:09:09;13.50;93.40
10231;DHT22;62604;49.432;8.680;2022-11-03T14:11:36;13.50;94.20
10231;DHT22;62604;49.432;8.680;2022-11-03T14:14:21;13.50;94.60
10231;DHT22;62604;49.432;8.680;2022-11-03T14:16:48;13.40;94.40
10231;DHT22;62604;49.432;8.680;2022-11-03T14:19:17;13.50;94.50
10231;DHT22;62604;49.432;8.680;2022-11-03T14:21:44;13.40;94.70
10231;DHT22;62604;49.432;8.680;2022-11-03T14:24:12;13.50;93.60
10231;DHT22;62604;49.432;8.680;2022-11-03T14:26:39;13.70;92.60
10231;DHT22;62604;49.432;8.680;2022-11-03T14:29:07;13.80;92.10
10231;DHT22;62604;49.432;8.680;2022-11-03T14:31:35;13.90;92.10
10231;DHT22;62604;49.432;8.680;2022-11-03T14:34:02;13.90;92.10
10231;DHT22;62604;49.432;8.680;2022-11-03T14:36:30;13.90;92.60
10231;DHT22;62604;49.432;8.680;2022-11-03T14:38:59;13.90;92.60
10231;DHT22;62604;49.432;8.680;2022-11-03T14:41:26;13.90;92.50
10231;DHT22;62604;49.432;8.680;2022-11-03T14:44:11;13.90;92.50
10231;DHT22;62604;49.432;8.680;2022-11-03T14:46:40;13.90;92.60
10231;DHT22;62604;49.432;8.680;2022-11-03T14:49:07;13.90;93.00
10231;DHT22;62604;49.432;8.680;2022-11-03T14:51:34;13.80;92.40
10231;DHT22;62604;49.432;8.680;2022-11-03T14:54:02;13.90;92.40
10231;DHT22;62604;49.432;8.680;2022-11-03T14:56:29;13.80;92.10
10231;DHT22;62604;49.432;8.680;2022-11-03T14:58:57;13.90;92.60
10231;DHT22;62604;49.432;8.680;2022-11-03T15:01:24;13.80;92.40
10231;DHT22;62604;49.432;8.680;2022-11-03T15:03:53;13.80;92.80
10231;DHT22;62604;49.432;8.680;2022-11-03T15:06:22;13.90;92.40
10231;DHT22;62604;49.432;8.680;2022-11-03T15:12:11;14.00;92.40
10231;DHT22;62604;49.432;8.680;2022-11-03T15:14:39;13.90;92.60
10231;DHT22;62604;49.432;8.680;2022-11-03T15:17:07;13.90;92.70
10231;DHT22;62604;49.432;8.680;2022-11-03T15:19:36;13.90;92.50
10231;DHT22;62604;49.432;8.680;2022-11-03T15:25:25;14.10;91.20
10231;DHT22;62604;49.432;8.680;2022-11-03T15:27:53;14.20;90.30
10231;DHT22;62604;49.432;8.680;2022-11-03T15:30:20;14.20;90.20
10231;DHT22;62604;49.432;8.680;2022-11-03T15:32:48;14.20;90.00
10231;DHT22;62604;49.432;8.680;2022-11-03T15:35:17;14.30;89.40
10231;DHT22;62604;49.432;8.680;2022-11-03T15:37:44;14.30;89.00
10231;DHT22;62604;49.432;8.680;2022-11-03T15:40:13;14.40;87.60
10231;DHT22;62604;49.432;8.680;2022-11-03T15:42:41;14.40;87.40
10231;DHT22;62604;49.432;8.680;2022-11-03T15:45:11;14.40;86.60
10231;DHT22;62604;49.432;8.680;2022-11-03T15:47:38;14.50;85.60
10231;DHT22;62604;49.432;8.680;2022-11-03T15:50:06;14.50;86.60
10231;DHT22;62604;49.432;8.680;2022-11-03T15:52:36;14.40;87.10
10231;DHT22;62604;49.432;8.680;2022-11-03T15:55:04;14.40;86.50
10231;DHT22;62604;49.432;8.680;2022-11-03T15:57:33;14.40;86.80
10231;DHT22;62604;49.432;8.680;2022-11-03T16:00:00;14.30;86.80
10231;DHT22;62604;49.432;8.680;2022-11-03T16:02:28;14.40;86.50
10231;DHT22;62604;49.432;8.680;2022-11-03T16:04:55;14.30;86.30
10231;DHT22;62604;49.432;8.680;2022-11-03T16:07:23;14.30;87.20
10231;DHT22;62604;49.432;8.680;2022-11-03T16:09:52;14.30;88.10
10231;DHT22;62604;49.432;8.680;2022-11-03T16:12:21;14.20;88.60
10231;DHT22;62604;49.432;8.680;2022-11-03T16:14:48;14.20;89.40
10231;DHT22;62604;49.432;8.680;2022-11-03T16:17:15;14.10;90.00
10231;DHT22;62604;49.432;8.680;2022-11-03T16:19:45;14.20;89.00
10231;DHT22;62604;49.432;8.680;2022-11-03T16:22:12;14.20;90.30
10231;DHT22;62604;49.432;8.680;2022-11-03T16:24:41;14.00;90.70
10231;DHT22;62604;49.432;8.680;2022-11-03T16:27:14;14.00;91.60
10231;DHT22;62604;49.432;8.680;2022-11-03T16:29:42;13.90;92.60
10231;DHT22;62604;49.432;8.680;2022-11-03T16:32:18;13.90;93.60
10231;DHT22;62604;49.432;8.680;2022-11-03T16:34:45;13.80;95.40
10231;DHT22;62604;49.432;8.680;2022-11-03T16:37:13;13.70;97.10
10231;DHT22;62604;49.432;8.680;2022-11-03T16:39:40;13.60;97.90
10231;DHT22;62604;49.432;8.680;2022-11-03T16:42:08;13.60;98.40
10231;DHT22;62604;49.432;8.680;2022-11-03T16:44:39;13.50;97.30
10231;DHT22;62604;49.432;8.680;2022-11-03T16:47:07;13.50;98.20
10231;DHT22;62604;49.432;8.680;2022-11-03T16:49:34;13.40;99.90
10231;DHT22;62604;49.432;8.680;2022-11-03T16:52:06;13.30;99.90
10231;DHT22;62604;49.432;8.680;2022-11-03T16:54:33;13.20;99.90
10231;DHT22;62604;49.432;8.680;2022-11-03T16:57:01;13.10;99.90
10231;DHT22;62604;49.432;8.680;2022-11-03T16:59:28;13.00;99.90
10231;DHT22;62604;49.432;8.680;2022-11-03T17:01:58;12.90;99.90
10231;DHT22;62604;49.432;8.680;2022-11-03T17:04:25;12.80;99.90
10231;DHT22;62604;49.432;8.680;2022-11-03T17:06:53;12.60;99.90
10231;DHT22;62604;49.432;8.680;2022-11-03T17:09:20;12.50;99.90
10231;DHT22;62604;49.432;8.680;2022-11-03T17:11:48;12.30;99.90
10231;DHT22;62604;49.432;8.680;2022-11-03T17:14:15;12.40;99.90
10231;DHT22;62604;49.432;8.680;2022-11-03T17:16:43;12.40;99.90
10231;DHT22;62604;49.432;8.680;2022-11-03T17:19:13;12.40;99.90
10231;DHT22;62604;49.432;8.680;2022-11-03T17:21:42;12.40;99.90
10231;DHT22;62604;49.432;8.680;2022-11-03T17:24:09;12.40;99.90
10231;DHT22;62604;49.432;8.680;2022-11-03T17:26:45;12.40;99.90
10231;DHT22;62604;49.432;8.680;2022-11-03T17:29:19;12.40;99.90
10231;DHT22;62604;49.432;8.680;2022-11-03T17:31:48;12.30;99.90
10231;DHT22;62604;49.432;8.680;2022-11-03T17:34:23;12.30;99.90
10231;DHT22;62604;49.432;8.680;2022-11-03T17:36:51;12.40;99.90
10231;DHT22;62604;49.432;8.680;2022-11-03T17:39:24;12.30;99.90
10231;DHT22;62604;49.432;8.680;2022-11-03T17:41:52;12.30;99.90
10231;DHT22;62604;49.432;8.680;2022-11-03T17:44:20;12.30;99.90
10231;DHT22;62604;49.432;8.680;2022-11-03T17:46:47;12.40;99.90
10231;DHT22;62604;49.432;8.680;2022-11-03T17:49:18;12.50;99.90
10231;DHT22;62604;49.432;8.680;2022-11-03T17:51:46;12.40;99.90
10231;DHT22;62604;49.432;8.680;2022-11-03T17:54:15;12.40;99.90
10231;DHT22;62604;49.432;8.680;2022-11-03T17:56:45;12.30;99.90
10231;DHT22;62604;49.432;8.680;2022-11-03T17:59:13;12.50;99.90
10231;DHT22;62604;49.432;8.680;2022-11-03T18:01:44;12.60;99.90
10231;DHT22;62604;49.432;8.680;2022-11-03T18:04:12;12.60;99.90
10231;DHT22;62604;49.432;8.680;2022-11-03T18:06:41;12.70;99.90
10231;DHT22;62604;49.432;8.680;2022-11-03T18:09:10;12.70;99.90
10231;DHT22;62604;49.432;8.680;2022-11-03T18:11:38;12.70;99.90
10231;DHT22;62604;49.432;8.680;2022-11-03T18:14:23;12.60;99.90
10231;DHT22;62604;49.432;8.680;2022-11-03T18:16:52;12.50;99.90
10231;DHT22;62604;49.432;8.680;2022-11-03T18:19:21;12.50;99.90
10231;DHT22;62604;49.432;8.680;2022-11-03T18:21:49;12.40;99.90
10231;DHT22;62604;49.432;8.680;2022-11-03T18:24:18;12.30;99.90
10231;DHT22;62604;49.432;8.680;2022-11-03T18:26:46;12.20;99.90
10231;DHT22;62604;49.432;8.680;2022-11-03T18:29:13;12.20;99.90
10231;DHT22;62604;49.432;8.680;2022-11-03T18:31:43;12.10;99.90
10231;DHT22;62604;49.432;8.680;2022-11-03T18:34:16;12.10;99.90
10231;DHT22;62604;49.432;8.680;2022-11-03T18:36:45;12.10;99.90
10231;DHT22;62604;49.432;8.680;2022-11-03T18:39:18;12.00;99.90
10231;DHT22;62604;49.432;8.680;2022-11-03T18:41:47;12.00;99.90
10231;DHT22;62604;49.432;8.680;2022-11-03T18:44:17;12.00;99.90
10231;DHT22;62604;49.432;8.680;2022-11-03T18:46:46;12.00;99.90
10231;DHT22;62604;49.432;8.680;2022-11-03T18:49:17;12.00;99.90
10231;DHT22;62604;49.432;8.680;2022-11-03T18:51:46;12.10;99.90
10231;DHT22;62604;49.432;8.680;2022-11-03T18:54:19;12.10;99.90
10231;DHT22;62604;49.432;8.680;2022-11-03T18:56:52;12.20;99.90
10231;DHT22;62604;49.432;8.680;2022-11-03T18:59:22;12.00;99.90
10231;DHT22;62604;49.432;8.680;2022-11-03T19:01:50;12.00;99.90
10231;DHT22;62604;49.432;8.680;2022-11-03T19:04:17;12.30;99.90
10231;DHT22;62604;49.432;8.680;2022-11-03T19:06:46;12.30;99.90
10231;DHT22;62604;49.432;8.680;2022-11-03T19:09:17;12.30;99.90
10231;DHT22;62604;49.432;8.680;2022-11-03T19:11:46;12.40;99.90
10231;DHT22;62604;49.432;8.680;2022-11-03T19:14:18;12.40;99.90
10231;DHT22;62604;49.432;8.680;2022-11-03T19:16:47;12.30;99.90
10231;DHT22;62604;49.432;8.680;2022-11-03T19:19:16;12.40;99.90
10231;DHT22;62604;49.432;8.680;2022-11-03T19:21:43;12.10;99.90
10231;DHT22;62604;49.432;8.680;2022-11-03T19:24:11;12.10;99.90
10231;DHT22;62604;49.432;8.680;2022-11-03T19:26:45;12.00;99.90
10231;DHT22;62604;49.432;8.680;2022-11-03T19:29:23;12.10;99.90
10231;DHT22;62604;49.432;8.680;2022-11-03T19:31:51;12.20;99.90
10231;DHT22;62604;49.432;8.680;2022-11-03T19:34:21;12.20;99.90
10231;DHT22;62604;49.432;8.680;2022-11-03T19:36:50;12.10;99.90
10231;DHT22;62604;49.432;8.680;2022-11-03T19:39:26;12.30;99.90
10231;DHT22;62604;49.432;8.680;2022-11-03T19:42:00;12.30;99.90
10231;DHT22;62604;49.432;8.680;2022-11-03T19:44:45;12.30;99.90
10231;DHT22;62604;49.432;8.680;2022-11-03T19:47:16;12.40;99.90
10231;DHT22;62604;49.432;8.680;2022-11-03T19:49:43;12.40;99.90
10231;DHT22;62604;49.432;8.680;2022-11-03T19:52:13;12.30;99.90
10231;DHT22;62604;49.432;8.680;2022-11-03T19:54:41;12.30;99.90
10231;DHT22;62604;49.432;8.680;2022-11-03T19:57:27;12.30;99.90
10231;DHT22;62604;49.432;8.680;2022-11-03T19:59:54;12.20;99.90
10231;DHT22;62604;49.432;8.680;2022-11-03T20:02:24;12.20;99.90
10231;DHT22;62604;49.432;8.680;2022-11-03T20:04:52;12.20;99.90
10231;DHT22;62604;49.432;8.680;2022-11-03T20:07:20;12.10;99.90
10231;DHT22;62604;49.432;8.680;2022-11-03T20:09:47;12.20;99.90
10231;DHT22;62604;49.432;8.680;2022-11-03T20:12:17;12.10;99.90
10231;DHT22;62604;49.432;8.680;2022-11-03T20:14:46;12.00;99.90
10231;DHT22;62604;49.432;8.680;2022-11-03T20:17:16;12.00;99.90
10231;DHT22;62604;49.432;8.680;2022-11-03T20:19:46;12.00;99.90
10231;DHT22;62604;49.432;8.680;2022-11-03T20:22:23;11.90;99.90
10231;DHT22;62604;49.432;8.680;2022-11-03T20:24:54;11.90;99.90
10231;DHT22;62604;49.432;8.680;2022-11-03T20:27:23;11.80;99.90
10231;DHT22;62604;49.432;8.680;2022-11-03T20:29:55;11.80;99.90
10231;DHT22;62604;49.432;8.680;2022-11-03T20:32:23;11.80;99.90
10231;DHT22;62604;49.432;8.680;2022-11-03T20:34:50;11.80;99.90
10231;DHT22;62604;49.432;8.680;2022-11-03T20:37:22;11.80;99.90
10231;DHT22;62604;49.432;8.680;2022-11-03T20:39:49;11.70;99.90
10231;DHT22;62604;49.432;8.680;2022-11-03T20:42:19;11.70;99.90
10231;DHT22;62604;49.432;8.680;2022-11-03T20:44:47;11.70;99.90
10231;DHT22;62604;49.432;8.680;2022-11-03T20:47:16;11.70;99.90
10231;DHT22;62604;49.432;8.680;2022-11-03T20:49:44;11.70;99.90
10231;DHT22;62604;49.432;8.680;2022-11-03T20:52:12;11.70;99.90
10231;DHT22;62604;49.432;8.680;2022-11-03T20:54:41;11.70;99.90
10231;DHT22;62604;49.432;8.680;2022-11-03T20:57:10;11.70;99.90
10231;DHT22;62604;49.432;8.680;2022-11-03T20:59:38;11.70;99.90
10231;DHT22;62604;49.432;8.680;2022-11-03T21:02:09;11.70;99.90
10231;DHT22;62604;49.432;8.680;2022-11-03T21:04:38;11.80;99.90
10231;DHT22;62604;49.432;8.680;2022-11-03T21:07:08;11.80;99.90
10231;DHT22;62604;49.432;8.680;2022-11-03T21:09:35;11.80;99.90
10231;DHT22;62604;49.432;8.680;2022-11-03T21:12:03;11.80;99.90
10231;DHT22;62604;49.432;8.680;2022-11-03T21:14:31;11.70;99.90
10231;DHT22;62604;49.432;8.680;2022-11-03T21:16:59;11.90;99.90
10231;DHT22;62604;49.432;8.680;2022-11-03T21:19:45;11.80;99.90
10231;DHT22;62604;49.432;8.680;2022-11-03T21:22:30;11.80;99.90
10231;DHT22;62604;49.432;8.680;2022-11-03T21:24:58;11.80;99.90
10231;DHT22;62604;49.432;8.680;2022-11-03T21:27:25;11.80;99.90
10231;DHT22;62604;49.432;8.680;2022-11-03T21:29:52;11.80;99.90
10231;DHT22;62604;49.432;8.680;2022-11-03T21:32:19;11.80;99.90
10231;DHT22;62604;49.432;8.680;2022-11-03T21:34:49;11.90;99.90
10231;DHT22;62604;49.432;8.680;2022-11-03T21:37:16;11.90;99.90
10231;DHT22;62604;49.432;8.680;2022-11-03T21:39:44;11.90;99.90
10231;DHT22;62604;49.432;8.680;2022-11-03T21:42:13;12.00;99.90
10231;DHT22;62604;49.432;8.680;2022-11-03T21:44:58;12.00;99.90
10231;DHT22;62604;49.432;8.680;2022-11-03T21:47:26;12.00;99.90
10231;DHT22;62604;49.432;8.680;2022-11-03T21:49:55;12.00;99.90
10231;DHT22;62604;49.432;8.680;2022-11-03T21:52:22;12.00;99.90
10231;DHT22;62604;49.432;8.680;2022-11-03T21:54:56;11.90;99.90
10231;DHT22;62604;49.432;8.680;2022-11-03T21:57:24;11.80;99.90
10231;DHT22;62604;49.432;8.680;2022-11-03T21:59:51;11.80;99.90
10231;DHT22;62604;49.432;8.680;2022-11-03T22:02:18;11.70;99.90
10231;DHT22;62604;49.432;8.680;2022-11-03T22:04:46;11.60;99.90
10231;DHT22;62604;49.432;8.680;2022-11-03T22:07:17;11.60;99.90
10231;DHT22;62604;49.432;8.680;2022-11-03T22:09:44;11.60;99.90
10231;DHT22;62604;49.432;8.680;2022-11-03T22:12:11;11.60;99.90
10231;DHT22;62604;49.432;8.680;2022-11-03T22:14:39;11.60;99.90
10231;DHT22;62604;49.432;8.680;2022-11-03T22:17:23;11.60;99.90
10231;DHT22;62604;49.432;8.680;2022-11-03T22:19:51;11.60;99.90
10231;DHT22;62604;49.432;8.680;2022-11-03T22:22:37;11.50;99.90
10231;DHT22;62604;49.432;8.680;2022-11-03T22:25:21;11.50;99.90
10231;DHT22;62604;49.432;8.680;2022-11-03T22:28:05;11.50;99.90
10231;DHT22;62604;49.432;8.680;2022-11-03T22:30:37;11.50;99.90
10231;DHT22;62604;49.432;8.680;2022-11-03T22:33:21;11.50;99.90
10231;DHT22;62604;49.432;8.680;2022-11-03T22:35:51;11.50;99.90